createdAt,value
2018-04-07T00:01:43.602Z,6.12
2018-04-07T00:04:11.110Z,9.25
2018-04-07T00:06:38.566Z,5.95
2018-04-07T00:09:06.010Z,8.43
2018-04-07T00:11:33.442Z,7.30
2018-04-07T00:14:00.941Z,5.12
2018-04-07T00:16:28.380Z,7.25
2018-04-07T00:18:55.857Z,7.17
2018-04-07T00:21:23.281Z,8.02
2018-04-07T00:23:50.745Z,7.05
2018-04-07T00:26:19.158Z,5.37
2018-04-07T00:28:46.609Z,6.53
2018-04-07T00:31:14.043Z,7.68
2018-04-07T00:33:41.484Z,7.95
2018-04-07T00:36:09.044Z,6.20
2018-04-07T00:38:36.501Z,7.10
2018-04-07T00:41:03.933Z,6.03
2018-04-07T00:43:32.129Z,5.72
2018-04-07T00:45:59.561Z,8.52
2018-04-07T00:48:27.033Z,5.75
2018-04-07T00:50:54.425Z,9.20
2018-04-07T00:53:21.860Z,5.90
2018-04-07T00:55:49.337Z,5.03
2018-04-07T00:58:16.770Z,6.70
2018-04-07T01:00:44.202Z,5.10
2018-04-07T01:03:11.783Z,7.87
2018-04-07T01:05:39.209Z,4.75
2018-04-07T01:08:07.423Z,6.73
2018-04-07T01:10:34.849Z,7.15
2018-04-07T01:13:02.280Z,8.23
2018-04-07T01:15:30.521Z,4.85
2018-04-07T01:17:57.942Z,4.53
2018-04-07T01:20:25.376Z,6.37
2018-04-07T01:22:53.557Z,4.53
2018-04-07T01:25:20.995Z,4.10
2018-04-07T01:27:49.246Z,5.78
2018-04-07T01:30:16.707Z,5.93
2018-04-07T01:32:44.134Z,5.10
2018-04-07T01:35:11.567Z,5.60
2018-04-07T01:37:39.050Z,4.57
2018-04-07T01:40:06.490Z,3.50
2018-04-07T01:42:33.917Z,4.62
2018-04-07T01:45:02.116Z,3.83
2018-04-07T01:47:29.555Z,5.03
2018-04-07T01:49:57.747Z,5.12
2018-04-07T01:52:25.206Z,6.62
2018-04-07T01:54:52.622Z,6.72
2018-04-07T01:57:20.835Z,4.20
2018-04-07T01:59:48.261Z,3.60
2018-04-07T02:02:16.453Z,3.77
2018-04-07T02:04:43.891Z,4.18
2018-04-07T02:07:12.124Z,5.65
2018-04-07T02:09:39.574Z,3.22
2018-04-07T02:12:07.033Z,4.55
2018-04-07T02:14:34.473Z,7.13
2018-04-07T02:17:01.944Z,4.10
2018-04-07T02:19:29.374Z,3.47
2018-04-07T02:21:56.850Z,5.18
2018-04-07T02:24:24.410Z,4.20
2018-04-07T02:26:51.841Z,5.60
2018-04-07T02:29:19.276Z,5.40
2018-04-07T02:31:47.513Z,3.47
2018-04-07T02:34:14.974Z,7.60
2018-04-07T02:36:42.415Z,5.07
2018-04-07T02:39:09.842Z,5.07
2018-04-07T02:41:37.273Z,4.75
2018-04-07T02:44:04.714Z,6.03
2018-04-07T02:46:33.038Z,3.60
2018-04-07T02:49:00.456Z,4.35
2018-04-07T02:51:28.678Z,4.30
2018-04-07T02:53:56.087Z,5.03
2018-04-07T02:56:24.286Z,6.45
2018-04-07T02:58:51.710Z,4.18
2018-04-07T03:01:19.922Z,6.80
2018-04-07T03:03:47.405Z,6.45
2018-04-07T03:06:14.788Z,4.70
2018-04-07T03:08:42.225Z,4.03
2018-04-07T03:11:09.657Z,5.28
2018-04-07T03:13:37.079Z,6.80
2018-04-07T03:16:04.514Z,6.20
2018-04-07T03:18:33.142Z,5.90
2018-04-07T03:21:00.569Z,5.28
2018-04-07T03:23:28.766Z,5.45
2018-04-07T03:25:56.235Z,5.20
2018-04-07T03:28:23.702Z,5.77
2018-04-07T03:30:51.159Z,6.57
2018-04-07T03:33:18.596Z,4.60
2018-04-07T03:35:46.064Z,4.50
2018-04-07T03:38:13.524Z,4.57
2018-04-07T03:40:40.978Z,4.87
2018-04-07T03:43:08.401Z,4.80
2018-04-07T03:45:35.850Z,6.35
2018-04-07T03:48:04.034Z,4.55
2018-04-07T03:50:31.467Z,8.82
2018-04-07T03:52:58.907Z,6.30
2018-04-07T03:55:26.340Z,4.82
2018-04-07T03:57:53.774Z,4.97
2018-04-07T04:00:21.201Z,5.68
2018-04-07T04:02:48.634Z,6.57
2018-04-07T04:05:16.067Z,6.72
2018-04-07T04:07:43.523Z,5.15
2018-04-07T04:10:10.968Z,5.45
2018-04-07T04:12:38.409Z,4.60
2018-04-07T04:15:05.821Z,6.82
2018-04-07T04:17:34.030Z,5.35
2018-04-07T04:20:01.510Z,5.20
2018-04-07T04:22:28.966Z,4.32
2018-04-07T04:24:56.397Z,5.78
2018-04-07T04:27:23.846Z,4.85
2018-04-07T04:29:51.281Z,4.95
2018-04-07T04:32:19.486Z,5.70
2018-04-07T04:34:46.949Z,7.25
2018-04-07T04:37:14.376Z,4.97
2018-04-07T04:39:42.568Z,6.53
2018-04-07T04:42:10.010Z,5.70
2018-04-07T04:44:37.435Z,6.93
2018-04-07T04:47:04.868Z,5.20
2018-04-07T04:49:32.318Z,4.07
2018-04-07T04:51:59.775Z,5.97
2018-04-07T04:54:27.198Z,4.00
2018-04-07T04:56:54.682Z,4.53
2018-04-07T04:59:22.111Z,4.80
2018-04-07T05:01:49.582Z,8.30
2018-04-07T05:04:16.987Z,6.28
2018-04-07T05:06:44.522Z,5.07
2018-04-07T05:09:11.969Z,5.68
2018-04-07T05:11:39.401Z,6.50
2018-04-07T05:14:06.815Z,8.23
2018-04-07T05:16:34.283Z,5.10
2018-04-07T05:19:01.695Z,6.87
2018-04-07T05:21:29.232Z,7.53
2018-04-07T05:23:56.689Z,5.80
2018-04-07T05:26:24.122Z,6.25
2018-04-07T05:28:51.545Z,5.23
2018-04-07T05:31:19.079Z,6.43
2018-04-07T05:33:46.515Z,10.17
2018-04-07T05:36:13.973Z,5.12
2018-04-07T05:38:41.393Z,6.03
2018-04-07T05:41:09.625Z,6.68
2018-04-07T05:43:37.070Z,10.27
2018-04-07T05:46:04.520Z,8.23
2018-04-07T05:48:32.080Z,6.40
2018-04-07T05:50:59.631Z,6.25
2018-04-07T05:53:27.114Z,6.12
2018-04-07T05:55:54.554Z,6.00
2018-04-07T05:58:21.999Z,7.68
2018-04-07T06:00:49.418Z,4.70
2018-04-07T06:03:17.629Z,8.23
2018-04-07T06:05:45.930Z,6.45
2018-04-07T06:08:13.606Z,5.85
2018-04-07T06:10:41.020Z,7.20
2018-04-07T06:13:08.479Z,7.07
2018-04-07T06:15:36.037Z,6.50
2018-04-07T06:18:03.525Z,6.82
2018-04-07T06:20:30.991Z,4.95
2018-04-07T06:22:58.474Z,7.65
2018-04-07T06:25:26.705Z,9.20
2018-04-07T06:27:54.173Z,9.37
2018-04-07T06:30:21.601Z,8.55
2018-04-07T06:32:49.051Z,9.80
2018-04-07T06:35:16.454Z,5.85
2018-04-07T06:37:43.885Z,6.50
2018-04-07T06:40:11.352Z,6.45
2018-04-07T06:42:38.883Z,5.68
2018-04-07T06:45:06.324Z,5.65
2018-04-07T06:47:33.791Z,6.05
2018-04-07T06:50:01.214Z,8.63
2018-04-07T06:52:29.433Z,6.20
2018-04-07T06:54:56.894Z,7.65
2018-04-07T06:57:24.330Z,7.20
2018-04-07T06:59:51.766Z,25.73
2018-04-07T07:02:19.205Z,5.65
2018-04-07T07:04:47.406Z,7.78
2018-04-07T07:07:14.842Z,7.43
2018-04-07T07:09:43.030Z,9.75
2018-04-07T07:12:10.612Z,7.03
2018-04-07T07:14:38.034Z,6.53
2018-04-07T07:17:06.255Z,6.82
2018-04-07T07:19:33.672Z,7.53
2018-04-07T07:22:01.126Z,7.43
2018-04-07T07:24:28.604Z,9.45
2018-04-07T07:26:56.026Z,7.62
2018-04-07T07:29:24.242Z,7.37
2018-04-07T07:31:51.670Z,7.63
2018-04-07T07:34:19.166Z,5.57
2018-04-07T07:36:46.654Z,8.15
2018-04-07T07:39:14.042Z,6.80
2018-04-07T07:41:41.541Z,8.88
2018-04-07T07:44:09.079Z,7.30
2018-04-07T07:46:36.540Z,9.20
2018-04-07T07:49:03.973Z,7.60
2018-04-07T07:51:32.166Z,8.70
2018-04-07T07:53:59.622Z,8.25
2018-04-07T07:56:27.109Z,9.00
2018-04-07T07:58:54.641Z,9.20
2018-04-07T08:01:22.077Z,8.27
2018-04-07T08:03:49.538Z,9.48
2018-04-07T08:06:17.742Z,9.03
2018-04-07T08:08:45.187Z,7.50
2018-04-07T08:11:12.662Z,8.20
2018-04-07T08:13:40.169Z,7.82
2018-04-07T08:16:08.410Z,7.50
2018-04-07T08:18:35.850Z,11.73
2018-04-07T08:21:03.299Z,8.07
2018-04-07T08:23:30.846Z,8.68
2018-04-07T08:25:58.281Z,6.37
2018-04-07T08:28:25.722Z,7.33
2018-04-07T08:30:53.920Z,8.25
2018-04-07T08:33:21.426Z,9.57
2018-04-07T08:35:49.680Z,9.70
2018-04-07T08:38:17.134Z,10.23
2018-04-07T08:40:45.698Z,7.45
2018-04-07T08:43:13.177Z,10.43
2018-04-07T08:45:40.650Z,7.47
2018-04-07T08:48:08.205Z,8.80
2018-04-07T08:50:35.658Z,6.40
2018-04-07T08:53:03.220Z,9.82
2018-04-07T08:55:30.747Z,8.82
2018-04-07T08:57:58.322Z,10.63
2018-04-07T09:00:25.797Z,10.88
2018-04-07T09:02:53.242Z,10.70
2018-04-07T09:05:21.217Z,7.50
2018-04-07T09:07:48.671Z,9.80
2018-04-07T09:10:16.107Z,7.28
2018-04-07T09:12:43.547Z,8.43
2018-04-07T09:15:11.017Z,9.57
2018-04-07T09:17:38.510Z,7.75
2018-04-07T09:20:06.038Z,7.95
2018-04-07T09:22:33.629Z,11.80
2018-04-07T09:25:01.088Z,9.60
2018-04-07T09:27:28.541Z,8.43
2018-04-07T09:29:56.110Z,8.70
2018-04-07T09:32:23.582Z,9.77
2018-04-07T09:34:51.806Z,8.07
2018-04-07T09:37:19.296Z,7.55
2018-04-07T09:39:46.826Z,9.23
2018-04-07T09:42:14.369Z,8.95
2018-04-07T09:44:41.786Z,10.88
2018-04-07T09:47:09.994Z,9.15
2018-04-07T09:49:37.423Z,8.88
2018-04-07T09:52:04.909Z,8.20
2018-04-07T09:54:32.357Z,10.32
2018-04-07T09:56:59.794Z,8.05
2018-04-07T09:59:28.027Z,9.40
2018-04-07T10:01:58.311Z,8.73
2018-04-07T10:04:26.527Z,8.90
2018-04-07T10:06:54.060Z,7.83
2018-04-07T10:09:21.612Z,8.35
2018-04-07T10:11:49.173Z,9.20
2018-04-07T10:14:16.627Z,8.73
2018-04-07T10:16:44.106Z,7.80
2018-04-07T10:19:11.543Z,11.02
2018-04-07T10:21:38.993Z,9.70
2018-04-07T10:24:06.494Z,8.63
2018-04-07T10:26:34.012Z,9.60
2018-04-07T10:29:01.496Z,10.52
2018-04-07T10:31:29.948Z,11.68
2018-04-07T10:33:57.378Z,10.27
2018-04-07T10:36:25.579Z,8.63
2018-04-07T10:38:53.015Z,10.43
2018-04-07T10:41:20.454Z,10.63
2018-04-07T10:43:48.649Z,8.68
2018-04-07T10:46:16.094Z,9.23
2018-04-07T10:48:44.299Z,8.73
2018-04-07T10:51:11.732Z,8.23
2018-04-07T10:53:39.174Z,8.90
2018-04-07T10:56:07.386Z,10.98
2018-04-07T10:58:34.842Z,9.40
2018-04-07T11:01:02.269Z,9.30
2018-04-07T11:03:29.741Z,9.40
2018-04-07T11:05:57.218Z,9.73
2018-04-07T11:08:24.664Z,8.90
2018-04-07T11:10:52.120Z,9.40
2018-04-07T11:13:19.542Z,9.32
2018-04-07T11:15:47.848Z,10.27
2018-04-07T11:18:15.281Z,8.63
2018-04-07T11:20:42.778Z,9.45
2018-04-07T11:23:10.251Z,11.23
2018-04-07T11:25:37.877Z,10.35
2018-04-07T11:28:05.305Z,11.73
2018-04-07T11:30:33.611Z,10.65
2018-04-07T11:33:01.043Z,10.02
2018-04-07T11:35:29.310Z,10.52
2018-04-07T11:37:58.346Z,10.03
2018-04-07T11:40:25.826Z,9.80
2018-04-07T11:42:53.250Z,10.27
2018-04-07T11:45:20.824Z,10.20
2018-04-07T11:47:48.267Z,9.75
2018-04-07T11:50:15.732Z,10.03
2018-04-07T11:52:43.158Z,10.35
2018-04-07T11:55:10.655Z,9.82
2018-04-07T11:57:38.106Z,11.60
2018-04-07T12:00:05.557Z,11.02
2018-04-07T12:02:33.057Z,10.60
2018-04-07T12:05:00.557Z,10.43
2018-04-07T12:07:27.980Z,12.25
2018-04-07T12:09:56.220Z,9.65
2018-04-07T12:12:23.662Z,11.65
2018-04-07T12:14:51.141Z,13.62
2018-04-07T12:17:18.659Z,10.80
2018-04-07T12:19:46.098Z,11.90
2018-04-07T12:22:13.678Z,11.23
2018-04-07T12:24:41.241Z,11.50
2018-04-07T12:27:08.658Z,12.98
2018-04-07T12:29:36.887Z,10.02
2018-04-07T12:32:04.330Z,11.25
2018-04-07T12:34:31.890Z,10.43
2018-04-07T12:36:59.355Z,11.55
2018-04-07T12:39:26.801Z,12.52
2018-04-07T12:41:54.233Z,11.23
2018-04-07T12:44:21.675Z,10.05
2018-04-07T12:46:49.877Z,12.80
2018-04-07T12:49:17.317Z,10.25
2018-04-07T12:51:44.760Z,10.27
2018-04-07T12:54:12.959Z,11.00
2018-04-07T12:56:40.398Z,10.10
2018-04-07T12:59:07.859Z,11.12
2018-04-07T13:01:35.294Z,12.15
2018-04-07T13:04:03.501Z,11.27
2018-04-07T13:06:31.007Z,10.43
2018-04-07T13:08:58.442Z,10.60
2018-04-07T13:11:25.908Z,10.30
2018-04-07T13:13:53.334Z,10.18
2018-04-07T13:16:20.890Z,12.27
2018-04-07T13:18:48.345Z,10.70
2018-04-07T13:21:15.905Z,10.10
2018-04-07T13:23:43.407Z,10.40
2018-04-07T13:26:10.943Z,9.90
2018-04-07T13:28:38.480Z,12.37
2018-04-07T13:31:05.934Z,10.70
2018-04-07T13:33:38.527Z,10.40
2018-04-07T13:36:00.826Z,11.20
2018-04-07T13:38:28.304Z,10.90
2018-04-07T13:40:55.738Z,10.90
2018-04-07T13:43:23.219Z,10.80
2018-04-07T13:45:50.674Z,10.70
2018-04-07T13:48:18.130Z,12.27
2018-04-07T13:50:45.564Z,11.57
2018-04-07T13:53:13.023Z,11.68
2018-04-07T13:55:40.476Z,12.15
2018-04-07T13:58:08.690Z,11.12
2018-04-07T14:00:36.136Z,12.20
2018-04-07T14:03:03.689Z,11.93
2018-04-07T14:05:31.251Z,11.90
2018-04-07T14:07:59.442Z,11.90
2018-04-07T14:10:26.899Z,11.73
2018-04-07T14:12:54.359Z,11.90
2018-04-07T14:15:21.821Z,11.40
2018-04-07T14:17:49.273Z,11.35
2018-04-07T14:20:16.707Z,11.70
2018-04-07T14:22:44.192Z,10.73
2018-04-07T14:25:11.622Z,13.93
2018-04-07T14:27:39.806Z,13.38
2018-04-07T14:30:07.249Z,11.40
2018-04-07T14:32:34.709Z,12.80
2018-04-07T14:35:02.151Z,12.05
2018-04-07T14:37:29.618Z,11.65
2018-04-07T14:39:57.063Z,11.10
2018-04-07T14:42:24.526Z,14.87
2018-04-07T14:44:51.965Z,16.00
2018-04-07T14:47:19.450Z,13.18
2018-04-07T14:49:46.926Z,12.83
2018-04-07T14:52:14.481Z,11.93
2018-04-07T14:54:42.022Z,11.93
2018-04-07T14:57:09.581Z,12.88
2018-04-07T14:59:36.993Z,12.93
2018-04-07T15:02:05.206Z,12.07
2018-04-07T15:04:32.657Z,12.98
2018-04-07T15:07:00.102Z,11.02
2018-04-07T15:09:27.578Z,12.32
2018-04-07T15:11:55.034Z,12.48
2018-04-07T15:14:22.523Z,12.20
2018-04-07T15:16:49.970Z,11.90
2018-04-07T15:19:17.431Z,11.85
2018-04-07T15:21:44.886Z,11.27
2018-04-07T15:24:12.358Z,12.68
2018-04-07T15:26:39.824Z,11.37
2018-04-07T15:29:07.271Z,13.25
2018-04-07T15:31:34.721Z,11.80
2018-04-07T15:34:02.200Z,13.85
2018-04-07T15:36:29.724Z,12.23
2018-04-07T15:38:57.150Z,12.43
2018-04-07T15:41:25.369Z,11.57
2018-04-07T15:43:52.839Z,11.80
2018-04-07T15:46:20.289Z,11.38
2018-04-07T15:48:47.738Z,11.00
2018-04-07T15:51:15.206Z,12.37
2018-04-07T15:53:42.663Z,12.68
2018-04-07T15:56:10.240Z,11.80
2018-04-07T15:58:37.773Z,11.48
2018-04-07T16:01:05.214Z,12.20
2018-04-07T16:03:32.654Z,12.90
2018-04-07T16:06:00.123Z,12.90
2018-04-07T16:08:27.547Z,12.43
2018-04-07T16:10:55.785Z,11.68
2018-04-07T16:13:23.311Z,12.30
2018-04-07T16:15:50.758Z,12.43
2018-04-07T16:18:18.259Z,11.35
2018-04-07T16:20:45.725Z,14.73
2018-04-07T16:23:13.167Z,12.30
2018-04-07T16:25:40.616Z,12.37
2018-04-07T16:28:08.088Z,11.57
2018-04-07T16:30:35.521Z,11.73
2018-04-07T16:33:02.974Z,11.10
2018-04-07T16:35:30.450Z,12.50
2018-04-07T16:37:57.918Z,10.90
2018-04-07T16:40:25.539Z,12.25
2018-04-07T16:42:52.967Z,12.53
2018-04-07T16:45:20.498Z,13.13
2018-04-07T16:47:47.893Z,13.48
2018-04-07T16:50:15.331Z,12.20
2018-04-07T16:52:43.543Z,12.40
2018-04-07T16:55:10.972Z,12.77
2018-04-07T16:57:38.427Z,13.65
2018-04-07T17:00:05.878Z,13.55
2018-04-07T17:02:34.094Z,13.40
2018-04-07T17:05:01.529Z,12.32
2018-04-07T17:07:28.995Z,13.40
2018-04-07T17:09:56.410Z,13.35
2018-04-07T17:12:24.733Z,13.40
2018-04-07T17:14:52.149Z,13.45
2018-04-07T17:17:20.369Z,13.48
2018-04-07T17:19:47.811Z,12.60
2018-04-07T17:22:15.271Z,13.15
2018-04-07T17:24:42.720Z,13.90
2018-04-07T17:27:10.167Z,15.50
2018-04-07T17:29:37.636Z,13.48
2018-04-07T17:32:05.096Z,16.67
2018-04-07T17:34:32.528Z,13.20
2018-04-07T17:36:59.965Z,15.15
2018-04-07T17:39:28.171Z,15.00
2018-04-07T17:41:55.637Z,13.93
2018-04-07T17:44:23.085Z,15.00
2018-04-07T17:46:50.530Z,15.13
2018-04-07T17:49:17.986Z,16.08
2018-04-07T17:51:45.465Z,20.60
2018-04-07T17:54:12.894Z,13.80
2018-04-07T17:56:40.343Z,15.05
2018-04-07T17:59:07.818Z,15.13
2018-04-07T18:01:35.295Z,14.00
2018-04-07T18:04:02.792Z,13.85
2018-04-07T18:06:30.227Z,13.50
2018-04-07T18:08:57.682Z,14.00
2018-04-07T18:11:25.165Z,26.00
2018-04-07T18:13:52.616Z,14.15
2018-04-07T18:16:20.054Z,14.23
2018-04-07T18:18:47.517Z,13.07
2018-04-07T18:21:14.973Z,15.50
2018-04-07T18:23:42.424Z,13.07
2018-04-07T18:26:09.878Z,14.35
2018-04-07T18:28:37.334Z,15.20
2018-04-07T18:31:04.770Z,14.75
2018-04-07T18:33:32.334Z,14.68
2018-04-07T18:35:59.783Z,15.50
2018-04-07T18:38:27.222Z,15.52
2018-04-07T18:40:55.518Z,16.02
2018-04-07T18:43:22.974Z,16.73
2018-04-07T18:45:50.478Z,16.40
2018-04-07T18:48:18.093Z,15.57
2018-04-07T18:50:45.548Z,14.80
2018-04-07T18:53:12.971Z,15.45
2018-04-07T18:55:41.221Z,14.45
2018-04-07T18:58:08.659Z,15.02
2018-04-07T19:00:36.122Z,16.12
2018-04-07T19:03:03.586Z,16.30
2018-04-07T19:05:31.025Z,16.77
2018-04-07T19:07:58.474Z,16.37
2018-04-07T19:10:26.023Z,17.35
2018-04-07T19:12:53.451Z,16.83
2018-04-07T19:15:21.673Z,17.00
2018-04-07T19:17:49.146Z,18.10
2018-04-07T19:20:16.777Z,16.90
2018-04-07T19:22:44.269Z,16.87
2018-04-07T19:25:11.710Z,18.02
2018-04-07T19:27:39.167Z,17.73
2018-04-07T19:30:06.629Z,16.40
2018-04-07T19:32:34.157Z,17.92
2018-04-07T19:35:01.631Z,18.30
2018-04-07T19:37:29.097Z,17.33
2018-04-07T19:39:56.631Z,18.42
2018-04-07T19:42:24.105Z,18.67
2018-04-07T19:44:51.578Z,18.48
2018-04-07T19:47:19.185Z,19.50
2018-04-07T19:49:46.688Z,19.55
2018-04-07T19:52:14.078Z,20.37
2018-04-07T19:54:42.391Z,20.17
2018-04-07T19:57:09.809Z,19.37
2018-04-07T19:59:38.022Z,19.00
2018-04-07T20:02:05.468Z,17.95
2018-04-07T20:04:32.925Z,18.10
2018-04-07T20:07:00.369Z,16.73
2018-04-07T20:09:27.878Z,15.88
2018-04-07T20:11:55.314Z,15.32
2018-04-07T20:14:22.780Z,15.48
2018-04-07T20:16:50.225Z,17.92
2018-04-07T20:19:17.694Z,16.50
2018-04-07T20:21:45.234Z,17.15
2018-04-07T20:24:12.662Z,15.88
2018-04-07T20:26:40.141Z,16.40
2018-04-07T20:29:07.620Z,14.60
2018-04-07T20:31:35.160Z,16.55
2018-04-07T20:34:02.663Z,15.60
2018-04-07T20:36:30.110Z,15.87
2018-04-07T20:38:57.550Z,15.85
2018-04-07T20:41:25.002Z,15.52
2018-04-07T20:43:52.510Z,15.47
2018-04-07T20:46:20.818Z,19.35
2018-04-07T20:48:48.272Z,15.43
2018-04-07T20:51:15.831Z,16.27
2018-04-07T20:53:43.252Z,16.60
2018-04-07T20:56:11.474Z,15.15
2018-04-07T20:58:38.914Z,14.95
2018-04-07T21:01:06.347Z,16.48
2018-04-07T21:03:34.651Z,14.77
2018-04-07T21:06:02.091Z,14.70
2018-04-07T21:08:30.383Z,17.23
2018-04-07T21:10:57.814Z,17.67
2018-04-07T21:13:26.025Z,17.02
2018-04-07T21:15:53.467Z,18.53
2018-04-07T21:18:20.908Z,16.23
2018-04-07T21:20:49.366Z,16.50
2018-04-07T21:23:16.812Z,15.53
2018-04-07T21:25:44.258Z,15.90
2018-04-07T21:28:11.729Z,17.27
2018-04-07T21:30:39.146Z,16.02
2018-04-07T21:33:06.605Z,15.50
2018-04-07T21:35:34.043Z,16.00
2018-04-07T21:38:01.498Z,15.65
2018-04-07T21:40:28.956Z,15.50
2018-04-07T21:42:56.379Z,15.20
2018-04-07T21:45:24.595Z,15.30
2018-04-07T21:47:52.034Z,15.65
2018-04-07T21:50:19.478Z,15.88
2018-04-07T21:52:46.942Z,16.50
2018-04-07T21:55:14.438Z,17.20
2018-04-07T21:57:41.975Z,17.77
2018-04-07T22:00:09.417Z,16.80
2018-04-07T22:02:36.906Z,17.48
2018-04-07T22:05:04.344Z,18.17
2018-04-07T22:07:31.770Z,16.73
2018-04-07T22:09:59.982Z,16.48
2018-04-07T22:12:27.423Z,16.33
2018-04-07T22:14:54.868Z,15.90
2018-04-07T22:17:22.329Z,16.70
2018-04-07T22:19:49.797Z,16.13
2018-04-07T22:22:17.255Z,16.27
2018-04-07T22:24:44.710Z,16.37
2018-04-07T22:27:12.269Z,17.33
2018-04-07T22:29:39.706Z,17.00
2018-04-07T22:32:07.147Z,18.00
2018-04-07T22:34:35.458Z,17.45
2018-04-07T22:37:02.929Z,16.52
2018-04-07T22:39:30.377Z,16.10
2018-04-07T22:41:57.831Z,17.45
2018-04-07T22:44:25.278Z,18.20
2018-04-07T22:46:52.739Z,18.45
2018-04-07T22:49:20.174Z,18.10
2018-04-07T22:51:47.628Z,17.80
2018-04-07T22:54:15.054Z,16.33
2018-04-07T22:56:42.493Z,15.52
2018-04-07T22:59:09.934Z,16.73
2018-04-07T23:01:37.390Z,17.12
2018-04-07T23:04:04.836Z,17.80
2018-04-07T23:06:32.391Z,16.65
2018-04-07T23:08:59.870Z,17.10
2018-04-07T23:11:27.602Z,17.60
2018-04-07T23:13:55.090Z,19.83
2018-04-07T23:16:22.550Z,17.02
2018-04-07T23:18:50.098Z,16.10
2018-04-07T23:21:17.558Z,16.27
2018-04-07T23:23:44.995Z,18.00
2018-04-07T23:26:12.446Z,16.40
2018-04-07T23:28:39.903Z,16.00
2018-04-07T23:31:07.402Z,16.83
2018-04-07T23:33:34.921Z,17.05
2018-04-07T23:36:02.352Z,16.55
2018-04-07T23:38:30.562Z,17.15
2018-04-07T23:40:58.030Z,17.60
2018-04-07T23:43:25.472Z,17.33
2018-04-07T23:45:52.946Z,19.02
2018-04-07T23:48:20.410Z,18.23
2018-04-07T23:50:47.862Z,20.02
2018-04-07T23:53:15.309Z,18.25
2018-04-07T23:55:42.854Z,18.83
2018-04-07T23:58:10.330Z,19.15
